Terminal Aerodrome Forecast
Issued by NWS Goodland, KS

Home | Current Version | Previous Version | Text Only | Print | Product List | Glossary On
Versions: 1 2 3 4 5 6 7 8 9 10 11 12 13 14 15 16 17 18
635
FTUS43 KGLD 232332
TAFGLD
TAF
KGLD 232332Z 2400/2424 19020G35KT P6SM VCTS SCT070CB BKN150
     FM240500 15016G24KT P6SM VCTS BKN130CB
     FM240700 12016KT P6SM VCSH BKN100
     FM241000 04014G22KT P6SM VCTS BKN015CB
     FM241200 03019G29KT 4SM RASN BKN010
     FM241700 35032G48KT 5SM -RASN OVC010
     FM241900 35033G48KT 5SM -RASN OVC010
     FM242200 35030G41KT P6SM OVC015=

USA.gov is the U.S. government's official web portal to all federal, state and local government web resources and services.